createdAt,value
2024-02-19T00:02:14.940Z,13.33
2024-02-19T00:04:41.670Z,13.51
2024-02-19T00:07:08.176Z,13.55
2024-02-19T00:09:34.585Z,13.43
2024-02-19T00:12:01.103Z,13.24
2024-02-19T00:14:27.580Z,13.38
2024-02-19T00:16:53.961Z,13.58
2024-02-19T00:19:20.683Z,13.72
2024-02-19T00:21:47.384Z,13.65
2024-02-19T00:24:15.169Z,13.34
2024-02-19T00:26:41.542Z,13.52
2024-02-19T00:29:07.909Z,13.70
2024-02-19T00:31:34.292Z,13.67
2024-02-19T00:34:00.982Z,13.48
2024-02-19T00:36:27.678Z,13.69
2024-02-19T00:38:54.124Z,13.83
2024-02-19T00:41:20.583Z,13.81
2024-02-19T00:43:46.993Z,13.70
2024-02-19T00:46:13.524Z,13.70
2024-02-19T00:48:40.577Z,13.72
2024-02-19T00:51:07.403Z,13.68
2024-02-19T00:53:33.805Z,13.70
2024-02-19T00:56:00.287Z,13.38
2024-02-19T00:58:26.712Z,13.43
2024-02-19T01:00:53.333Z,13.49
2024-02-19T01:03:19.782Z,13.34
2024-02-19T01:05:46.256Z,12.69
2024-02-19T01:08:12.605Z,12.86
2024-02-19T01:10:39.059Z,13.19
2024-02-19T01:13:05.706Z,13.28
2024-02-19T01:15:32.180Z,13.35
2024-02-19T01:17:58.617Z,12.95
2024-02-19T01:20:25.087Z,12.96
2024-02-19T01:22:51.481Z,12.92
2024-02-19T01:25:18.877Z,12.36
2024-02-19T01:27:45.544Z,12.62
2024-02-19T01:30:12.684Z,12.93
2024-02-19T01:32:39.248Z,13.08
2024-02-19T01:35:07.151Z,13.24
2024-02-19T01:37:33.794Z,13.19
2024-02-19T01:40:00.434Z,13.07
2024-02-19T01:42:27.074Z,13.28
2024-02-19T01:44:53.703Z,12.90
2024-02-19T01:47:20.406Z,12.94
2024-02-19T01:49:47.180Z,12.96
2024-02-19T01:52:13.894Z,13.05
2024-02-19T01:54:40.893Z,13.22
2024-02-19T01:57:08.620Z,13.19
2024-02-19T01:59:35.681Z,13.25
2024-02-19T02:02:03.838Z,13.34
2024-02-19T02:04:30.538Z,13.18
2024-02-19T02:06:58.653Z,13.28
2024-02-19T02:09:25.389Z,13.35
2024-02-19T02:11:52.042Z,13.32
2024-02-19T02:14:18.871Z,13.34
2024-02-19T02:16:45.497Z,13.04
2024-02-19T02:19:14.014Z,12.98
2024-02-19T02:21:40.879Z,13.12
2024-02-19T02:24:07.427Z,12.80
2024-02-19T02:26:38.832Z,13.12
2024-02-19T02:29:05.381Z,13.11
2024-02-19T02:31:31.944Z,12.87
2024-02-19T02:33:59.127Z,13.06
2024-02-19T02:36:25.853Z,13.19
2024-02-19T02:38:52.444Z,13.10
2024-02-19T02:41:19.043Z,12.96
2024-02-19T02:43:45.918Z,13.15
2024-02-19T02:46:12.590Z,13.26
2024-02-19T02:48:39.307Z,13.23
2024-02-19T02:51:06.088Z,13.29
2024-02-19T02:53:32.686Z,13.26
2024-02-19T02:55:59.273Z,13.41
2024-02-19T02:58:25.818Z,13.40
2024-02-19T03:00:52.458Z,13.49
2024-02-19T03:03:19.085Z,13.41
2024-02-19T03:05:45.685Z,13.35
2024-02-19T03:08:12.249Z,13.30
2024-02-19T03:10:38.790Z,13.21
2024-02-19T03:13:05.409Z,13.32
2024-02-19T03:15:31.952Z,13.33
2024-02-19T03:17:58.820Z,13.21
2024-02-19T03:20:25.637Z,13.18
2024-02-19T03:22:52.261Z,13.10
2024-02-19T03:25:18.962Z,13.10
2024-02-19T03:27:45.584Z,13.18
2024-02-19T03:30:13.444Z,13.17
2024-02-19T03:32:40.112Z,13.27
2024-02-19T03:35:08.980Z,13.36
2024-02-19T03:37:35.685Z,13.33
2024-02-19T03:40:02.573Z,13.37
2024-02-19T03:42:29.023Z,13.39
2024-02-19T03:44:55.379Z,13.35
2024-02-19T03:47:21.806Z,13.37
2024-02-19T03:49:48.398Z,13.49
2024-02-19T03:52:14.811Z,13.51
2024-02-19T03:54:41.475Z,13.48
2024-02-19T03:57:07.899Z,13.60
2024-02-19T03:59:34.305Z,13.18
2024-02-19T04:02:00.945Z,13.17
2024-02-19T04:04:27.573Z,13.15
2024-02-19T04:06:54.096Z,13.36
2024-02-19T04:09:20.839Z,13.42
2024-02-19T04:11:47.275Z,13.45
2024-02-19T04:14:13.744Z,13.43
2024-02-19T04:16:43.243Z,13.54
2024-02-19T04:19:09.852Z,13.57
2024-02-19T04:21:43.574Z,13.11
2024-02-19T04:24:13.090Z,13.01
2024-02-19T04:26:40.161Z,12.86
2024-02-19T04:29:08.468Z,12.82
2024-02-19T04:31:35.308Z,12.66
2024-02-19T04:34:02.221Z,12.81
2024-02-19T04:36:29.064Z,13.02
2024-02-19T04:38:55.893Z,12.90
2024-02-19T04:41:22.521Z,13.05
2024-02-19T04:43:49.138Z,13.19
2024-02-19T04:46:15.833Z,13.27
2024-02-19T04:48:42.618Z,13.40
2024-02-19T04:51:09.306Z,13.35
2024-02-19T04:53:35.985Z,13.15
2024-02-19T04:56:02.619Z,13.08
2024-02-19T04:58:29.230Z,13.17
2024-02-19T05:00:55.890Z,13.07
2024-02-19T05:03:22.561Z,13.09
2024-02-19T05:05:49.138Z,13.20
2024-02-19T05:08:15.851Z,13.26
2024-02-19T05:10:42.422Z,13.34
2024-02-19T05:13:09.144Z,13.16
2024-02-19T05:15:35.734Z,13.04
2024-02-19T05:18:02.396Z,12.94
2024-02-19T05:20:29.152Z,12.96
2024-02-19T05:22:55.717Z,12.99
2024-02-19T05:25:22.439Z,13.15
2024-02-19T05:27:49.165Z,13.24
2024-02-19T05:30:15.761Z,13.32
2024-02-19T05:32:42.399Z,13.43
2024-02-19T05:35:09.079Z,13.45
2024-02-19T05:37:35.737Z,13.50
2024-02-19T05:40:02.646Z,13.50
2024-02-19T05:42:29.432Z,13.51
2024-02-19T05:44:55.942Z,13.54
2024-02-19T05:47:22.606Z,13.51
2024-02-19T05:49:49.285Z,13.50
2024-02-19T05:52:15.946Z,13.51
2024-02-19T05:54:42.559Z,13.55
2024-02-19T05:57:09.137Z,13.51
2024-02-19T05:59:35.730Z,13.47
2024-02-19T06:02:02.436Z,13.50
2024-02-19T06:04:29.184Z,13.52
2024-02-19T06:06:55.884Z,13.50
2024-02-19T06:09:22.884Z,13.54
2024-02-19T06:11:49.243Z,13.57
2024-02-19T06:14:15.762Z,13.44
2024-02-19T06:16:42.319Z,13.54
2024-02-19T06:19:08.816Z,13.46
2024-02-19T06:21:35.741Z,13.43
2024-02-19T06:24:02.245Z,13.53
2024-02-19T06:26:28.877Z,13.53
2024-02-19T06:28:55.409Z,13.40
2024-02-19T06:31:21.886Z,13.43
2024-02-19T06:33:48.629Z,13.45
2024-02-19T06:36:15.697Z,13.42
2024-02-19T06:38:42.154Z,13.46
2024-02-19T06:41:08.616Z,13.47
2024-02-19T06:43:35.017Z,13.48
2024-02-19T06:46:01.627Z,13.41
2024-02-19T06:48:28.147Z,13.38
2024-02-19T06:50:54.757Z,13.25
2024-02-19T06:53:21.261Z,13.23
2024-02-19T06:59:00.021Z,13.04
2024-02-19T07:01:54.650Z,13.02
2024-02-19T07:04:21.830Z,12.92
2024-02-19T07:07:49.672Z,12.98
2024-02-19T07:10:26.697Z,13.09
2024-02-19T07:13:30.389Z,12.98
2024-02-19T07:16:04.402Z,12.96
2024-02-19T07:18:54.554Z,13.03
2024-02-19T07:39:16.691Z,12.89
2024-02-19T07:41:43.261Z,13.17
2024-02-19T07:44:19.116Z,13.26
2024-02-19T07:47:03.383Z,13.36
2024-02-19T07:49:43.513Z,13.36
2024-02-19T07:52:20.290Z,13.37
2024-02-19T07:54:47.187Z,13.41
2024-02-19T07:57:25.013Z,13.49
2024-02-19T08:00:11.040Z,13.57
2024-02-19T08:02:38.565Z,13.77
2024-02-19T08:05:11.779Z,13.81
2024-02-19T08:07:38.801Z,13.84
2024-02-19T08:10:09.766Z,13.68
2024-02-19T08:12:41.644Z,13.67
2024-02-19T08:15:10.494Z,13.66
2024-02-19T08:17:37.548Z,13.78
2024-02-19T08:20:08.795Z,13.83
2024-02-19T08:22:36.359Z,13.82
2024-02-19T08:25:03.543Z,13.83
2024-02-19T08:27:30.615Z,13.89
2024-02-19T08:29:57.351Z,13.86
2024-02-19T08:32:24.179Z,13.77
2024-02-19T08:34:50.945Z,13.58
2024-02-19T08:37:17.521Z,13.61
2024-02-19T08:39:45.271Z,13.76
2024-02-19T08:45:24.270Z,13.93
2024-02-19T08:50:46.245Z,13.88
2024-02-19T08:53:13.568Z,13.97
2024-02-19T08:55:43.438Z,14.15
2024-02-19T08:58:10.709Z,14.24
2024-02-19T09:00:41.367Z,14.31
2024-02-19T09:03:08.296Z,14.43
2024-02-19T09:05:38.151Z,14.50
2024-02-19T09:08:12.292Z,14.68
2024-02-19T09:10:39.228Z,14.83
2024-02-19T09:13:10.761Z,14.88
2024-02-19T09:15:37.580Z,15.06
2024-02-19T09:18:18.554Z,15.16
2024-02-19T09:20:47.712Z,15.23
2024-02-19T09:23:14.218Z,15.25
2024-02-19T09:25:40.660Z,15.20
2024-02-19T09:28:07.266Z,15.30
2024-02-19T09:30:34.046Z,15.25
2024-02-19T09:33:00.876Z,15.24
2024-02-19T09:35:27.414Z,14.99
2024-02-19T09:37:53.981Z,14.82
2024-02-19T09:40:21.973Z,14.90
2024-02-19T09:42:49.558Z,14.84
2024-02-19T09:45:16.070Z,14.87
2024-02-19T09:47:45.508Z,14.91
2024-02-19T09:50:13.952Z,14.96
2024-02-19T09:52:44.904Z,15.03
2024-02-19T09:55:11.457Z,14.93
2024-02-19T09:57:38.294Z,15.03
2024-02-19T10:00:05.301Z,15.11
2024-02-19T10:02:32.089Z,15.22
2024-02-19T10:04:58.856Z,15.33
2024-02-19T10:07:26.021Z,15.22
2024-02-19T10:09:52.663Z,15.19
2024-02-19T10:12:19.435Z,15.21
2024-02-19T10:14:46.311Z,15.30
2024-02-19T10:17:13.006Z,15.49
2024-02-19T10:19:40.018Z,15.51
2024-02-19T10:22:08.925Z,15.69
2024-02-19T10:24:37.151Z,15.75
2024-02-19T10:27:04.059Z,15.93
2024-02-19T10:29:30.595Z,16.08
2024-02-19T10:31:57.405Z,16.23
2024-02-19T10:34:24.301Z,16.39
2024-02-19T10:36:51.001Z,16.56
2024-02-19T10:39:17.779Z,16.68
2024-02-19T10:41:44.503Z,16.68
2024-02-19T10:44:11.379Z,16.26
2024-02-19T10:46:39.086Z,16.41
2024-02-19T10:49:05.948Z,16.21
2024-02-19T10:51:32.804Z,16.20
2024-02-19T10:54:01.773Z,16.13
2024-02-19T10:56:40.004Z,16.00
2024-02-19T10:59:11.465Z,16.03
2024-02-19T11:01:39.054Z,16.19
2024-02-19T11:04:18.020Z,16.22
2024-02-19T11:06:59.030Z,16.22
2024-02-19T11:09:32.317Z,16.06
2024-02-19T11:12:01.175Z,15.84
2024-02-19T11:14:30.014Z,15.85
2024-02-19T11:16:56.486Z,15.48
2024-02-19T11:19:23.105Z,15.68
2024-02-19T11:21:50.241Z,15.81
2024-02-19T11:24:19.921Z,15.70
2024-02-19T11:26:46.880Z,15.93
2024-02-19T11:29:17.628Z,15.90
2024-02-19T11:31:44.588Z,15.92
2024-02-19T11:34:19.674Z,16.24
2024-02-19T11:36:47.375Z,16.16
2024-02-19T11:39:14.009Z,16.22
2024-02-19T11:41:44.477Z,16.25
2024-02-19T11:44:12.016Z,16.00
2024-02-19T11:46:38.765Z,16.07
2024-02-19T11:49:05.375Z,16.20
2024-02-19T11:51:32.084Z,16.36
2024-02-19T11:53:58.753Z,16.58
2024-02-19T11:56:25.122Z,16.68
2024-02-19T11:58:53.043Z,16.65
2024-02-19T12:01:21.218Z,16.50
2024-02-19T12:03:48.331Z,16.62
2024-02-19T12:06:14.749Z,16.76
2024-02-19T12:08:41.249Z,16.77
2024-02-19T12:11:07.890Z,16.81
2024-02-19T12:13:34.775Z,16.83
2024-02-19T12:16:01.637Z,17.00
2024-02-19T12:18:28.213Z,17.06
2024-02-19T12:20:54.896Z,17.22
2024-02-19T12:23:21.755Z,17.28
2024-02-19T12:25:48.186Z,17.27
2024-02-19T12:28:14.745Z,17.19
2024-02-19T12:30:41.298Z,17.08
2024-02-19T12:33:08.902Z,17.19
2024-02-19T12:35:37.625Z,17.07
2024-02-19T12:38:05.548Z,16.54
2024-02-19T12:40:32.180Z,17.02
2024-02-19T12:42:58.878Z,16.55
2024-02-19T12:45:25.299Z,16.60
2024-02-19T12:47:51.870Z,16.41
2024-02-19T12:50:18.627Z,16.30
2024-02-19T12:52:45.488Z,16.50
2024-02-19T12:55:13.766Z,16.51
2024-02-19T12:57:41.418Z,16.51
2024-02-19T13:00:08.520Z,16.67
2024-02-19T13:02:35.629Z,16.58
2024-02-19T13:05:02.134Z,16.74
2024-02-19T13:07:28.788Z,16.89
2024-02-19T13:09:55.273Z,17.01
2024-02-19T13:12:21.874Z,17.09
2024-02-19T13:14:48.480Z,17.04
2024-02-19T13:17:16.977Z,17.04
2024-02-19T13:19:48.569Z,17.25
2024-02-19T13:22:16.163Z,16.61
2024-02-19T13:24:42.945Z,16.89
2024-02-19T13:27:09.651Z,17.02
2024-02-19T13:29:36.405Z,16.42
2024-02-19T13:32:03.320Z,16.28
2024-02-19T13:34:29.952Z,16.21
2024-02-19T13:36:56.804Z,16.24
2024-02-19T13:39:23.539Z,16.65
2024-02-19T13:41:50.492Z,16.59
2024-02-19T13:44:17.132Z,16.55
2024-02-19T13:46:43.675Z,16.73
2024-02-19T13:49:10.268Z,16.59
2024-02-19T13:51:36.809Z,16.85
2024-02-19T13:54:03.376Z,16.96
2024-02-19T13:56:29.981Z,17.20
2024-02-19T13:58:56.404Z,17.43
2024-02-19T14:01:22.963Z,17.29
2024-02-19T14:03:49.838Z,17.42
2024-02-19T14:06:16.595Z,17.30
2024-02-19T14:08:45.908Z,17.51
2024-02-19T14:11:12.346Z,17.48
2024-02-19T14:13:46.587Z,17.33
2024-02-19T14:16:21.202Z,17.21
2024-02-19T14:18:47.830Z,17.00
2024-02-19T14:21:14.553Z,17.08
2024-02-19T14:23:41.326Z,17.47
2024-02-19T14:26:07.887Z,17.62
2024-02-19T14:28:34.397Z,18.10
2024-02-19T14:31:00.990Z,18.51
2024-02-19T14:33:28.274Z,19.14
2024-02-19T14:35:54.859Z,19.36
2024-02-19T14:38:21.546Z,19.31
2024-02-19T14:40:48.234Z,19.09
2024-02-19T14:43:15.120Z,19.43
2024-02-19T14:45:41.782Z,19.54
2024-02-19T14:48:09.022Z,19.84
2024-02-19T14:50:35.885Z,19.46
2024-02-19T14:53:02.766Z,19.72
2024-02-19T14:55:29.510Z,19.49
2024-02-19T14:57:56.523Z,19.55
2024-02-19T15:00:23.318Z,19.69
2024-02-19T15:02:50.232Z,19.71
2024-02-19T15:05:16.818Z,19.95
2024-02-19T15:07:43.727Z,20.16
2024-02-19T15:10:10.632Z,20.54
2024-02-19T15:12:37.312Z,20.77
2024-02-19T15:15:04.591Z,20.78
2024-02-19T15:17:31.182Z,20.68
2024-02-19T15:19:57.775Z,20.58
2024-02-19T15:22:24.294Z,20.46
2024-02-19T15:24:50.828Z,20.15
2024-02-19T15:27:17.321Z,19.65
2024-02-19T15:29:43.675Z,19.56
2024-02-19T15:32:10.117Z,18.90
2024-02-19T15:34:36.713Z,18.85
2024-02-19T15:37:03.321Z,18.67
2024-02-19T15:39:29.959Z,18.52
2024-02-19T15:41:56.372Z,18.39
2024-02-19T15:44:22.777Z,18.22
2024-02-19T15:46:49.217Z,18.24
2024-02-19T15:49:15.834Z,18.10
2024-02-19T15:51:42.496Z,17.92
2024-02-19T15:54:09.135Z,17.91
2024-02-19T15:56:35.797Z,17.74
2024-02-19T15:59:02.489Z,17.77
2024-02-19T16:01:29.287Z,17.64
2024-02-19T16:03:55.966Z,17.43
2024-02-19T16:06:22.716Z,17.38
2024-02-19T16:08:49.357Z,17.08
2024-02-19T16:11:15.839Z,16.95
2024-02-19T16:13:42.366Z,16.84
2024-02-19T16:16:09.188Z,16.83
2024-02-19T16:18:37.593Z,16.86
2024-02-19T16:21:05.606Z,16.71
2024-02-19T16:23:32.908Z,16.49
2024-02-19T16:25:59.893Z,15.90
2024-02-19T16:28:26.781Z,15.48
2024-02-19T16:30:53.440Z,15.90
2024-02-19T16:33:20.017Z,16.00
2024-02-19T16:35:46.753Z,16.07
2024-02-19T16:38:13.609Z,16.16
2024-02-19T16:40:40.118Z,16.28
2024-02-19T16:43:06.763Z,16.32
2024-02-19T16:45:33.818Z,16.32
2024-02-19T16:48:05.346Z,16.39
2024-02-19T16:50:32.698Z,16.36
2024-02-19T16:52:59.569Z,16.42
2024-02-19T16:55:26.351Z,16.36
2024-02-19T16:57:53.033Z,16.31
2024-02-19T17:00:20.003Z,16.23
2024-02-19T17:02:46.671Z,15.98
2024-02-19T17:05:13.724Z,15.88
2024-02-19T17:07:40.761Z,15.58
2024-02-19T17:10:07.948Z,15.37
2024-02-19T17:12:34.638Z,15.57
2024-02-19T17:15:01.262Z,15.74
2024-02-19T17:17:28.051Z,15.79
2024-02-19T17:19:55.438Z,15.80
2024-02-19T17:22:22.412Z,15.90
2024-02-19T17:24:49.317Z,15.86
2024-02-19T17:27:15.997Z,15.69
2024-02-19T17:29:43.428Z,15.28
2024-02-19T17:32:10.111Z,15.39
2024-02-19T17:34:37.128Z,15.45
2024-02-19T17:37:03.986Z,15.51
2024-02-19T17:39:30.755Z,15.60
2024-02-19T17:41:57.925Z,15.69
2024-02-19T17:44:24.705Z,15.76
2024-02-19T17:46:53.036Z,15.80
2024-02-19T17:49:19.926Z,15.90
2024-02-19T17:51:46.563Z,15.79
2024-02-19T17:54:13.094Z,15.64
2024-02-19T17:56:39.589Z,15.65
2024-02-19T17:59:10.787Z,15.67
2024-02-19T18:01:39.046Z,15.49
2024-02-19T18:04:05.668Z,15.55
2024-02-19T18:06:33.668Z,15.52
2024-02-19T18:09:01.436Z,15.44
2024-02-19T18:11:27.903Z,15.41
2024-02-19T18:13:54.381Z,15.24
2024-02-19T18:16:22.161Z,15.31
2024-02-19T18:18:49.541Z,15.32
2024-02-19T18:21:16.253Z,15.31
2024-02-19T18:23:43.043Z,15.35
2024-02-19T18:26:09.562Z,15.31
2024-02-19T18:28:36.412Z,15.33
2024-02-19T18:31:03.896Z,15.30
2024-02-19T18:33:31.273Z,15.25
2024-02-19T18:35:57.804Z,15.13
2024-02-19T18:38:24.626Z,14.85
2024-02-19T18:40:51.019Z,14.39
2024-02-19T18:43:17.441Z,14.40
2024-02-19T18:45:43.964Z,14.19
2024-02-19T18:48:10.841Z,14.12
2024-02-19T18:50:38.300Z,14.18
2024-02-19T18:53:04.949Z,14.23
2024-02-19T18:55:31.634Z,14.27
2024-02-19T18:57:58.303Z,14.27
2024-02-19T19:00:24.898Z,14.20
2024-02-19T19:02:51.472Z,13.94
2024-02-19T19:05:18.170Z,13.98
2024-02-19T19:07:44.809Z,14.11
2024-02-19T19:10:11.442Z,14.18
2024-02-19T19:12:37.868Z,14.16
2024-02-19T19:15:04.915Z,14.22
2024-02-19T19:17:31.534Z,14.29
2024-02-19T19:19:58.090Z,14.33
2024-02-19T19:22:24.642Z,14.45
2024-02-19T19:24:51.207Z,14.52
2024-02-19T19:27:17.807Z,14.64
2024-02-19T19:29:44.254Z,14.72
2024-02-19T19:32:10.786Z,14.64
2024-02-19T19:34:37.292Z,14.49
2024-02-19T19:37:04.064Z,14.57
2024-02-19T19:39:30.561Z,14.58
2024-02-19T19:41:56.965Z,14.68
2024-02-19T19:44:23.413Z,14.78
2024-02-19T19:46:49.921Z,14.85
2024-02-19T19:49:16.395Z,14.91
2024-02-19T19:51:43.749Z,14.94
2024-02-19T19:54:10.563Z,14.94
2024-02-19T19:56:37.223Z,15.01
2024-02-19T19:59:03.855Z,14.92
2024-02-19T20:01:34.724Z,15.01
2024-02-19T20:04:01.299Z,14.98
2024-02-19T20:06:28.669Z,14.97
2024-02-19T20:08:56.040Z,14.93
2024-02-19T20:11:23.733Z,14.74
2024-02-19T20:13:51.716Z,14.85
2024-02-19T20:18:51.453Z,14.99
2024-02-19T20:21:18.516Z,15.06
2024-02-19T20:23:47.905Z,15.07
2024-02-19T20:28:49.852Z,15.04
2024-02-19T20:31:16.669Z,14.65
2024-02-19T20:33:43.544Z,14.80
2024-02-19T20:36:12.185Z,14.91
2024-02-19T20:38:38.822Z,14.95
2024-02-19T20:41:05.385Z,14.76
2024-02-19T20:43:32.068Z,14.79
2024-02-19T20:45:58.652Z,14.76
2024-02-19T20:48:25.492Z,14.65
2024-02-19T20:50:52.391Z,13.86
2024-02-19T20:53:18.862Z,13.36
2024-02-19T20:55:45.472Z,13.73
2024-02-19T20:58:12.357Z,13.24
2024-02-19T21:00:39.071Z,13.11
2024-02-19T21:14:37.833Z,11.81
2024-02-19T21:17:04.832Z,11.07
2024-02-19T21:19:31.772Z,10.59
2024-02-19T21:21:58.341Z,10.23
2024-02-19T21:24:25.028Z,10.12
2024-02-19T21:29:25.680Z,10.65
2024-02-19T21:31:52.302Z,10.84
2024-02-19T21:34:18.810Z,11.53
2024-02-19T21:36:45.293Z,11.96
2024-02-19T21:39:12.093Z,12.29
2024-02-19T21:41:38.772Z,12.39
2024-02-19T21:44:06.186Z,12.23
2024-02-19T21:46:32.939Z,12.47
2024-02-19T21:48:59.480Z,12.74
2024-02-19T21:51:26.270Z,12.89
2024-02-19T21:53:52.950Z,12.90
2024-02-19T21:56:19.839Z,13.00
2024-02-19T21:58:47.590Z,13.04
2024-02-19T22:01:14.878Z,13.13
2024-02-19T22:03:44.874Z,13.24
2024-02-19T22:06:11.691Z,13.30
2024-02-19T22:08:38.454Z,13.28
2024-02-19T22:11:05.159Z,13.26
2024-02-19T22:13:31.894Z,13.27
2024-02-19T22:15:58.601Z,13.37
2024-02-19T22:18:25.702Z,13.43
2024-02-19T22:20:53.006Z,13.41
2024-02-19T22:23:19.771Z,13.41
2024-02-19T22:25:46.522Z,13.52
2024-02-19T22:28:13.232Z,13.48
2024-02-19T22:30:39.923Z,13.27
2024-02-19T22:33:06.356Z,13.16
2024-02-19T22:35:32.906Z,13.27
2024-02-19T22:37:59.316Z,13.24
2024-02-19T22:40:25.793Z,13.41
2024-02-19T22:42:52.431Z,13.49
2024-02-19T22:45:19.025Z,13.58
2024-02-19T22:47:45.440Z,13.64
2024-02-19T22:50:11.980Z,13.71
2024-02-19T22:52:43.446Z,13.47
2024-02-19T22:55:11.076Z,13.28
2024-02-19T22:57:37.521Z,13.31
2024-02-19T23:00:04.293Z,13.09
2024-02-19T23:02:30.666Z,13.19
2024-02-19T23:04:57.180Z,13.07
2024-02-19T23:07:23.656Z,13.13
2024-02-19T23:09:50.120Z,13.17
2024-02-19T23:12:16.554Z,13.09
2024-02-19T23:14:42.937Z,12.90
2024-02-19T23:17:09.387Z,12.95
2024-02-19T23:19:35.849Z,13.07
2024-02-19T23:22:02.672Z,13.18
2024-02-19T23:24:29.243Z,13.25
2024-02-19T23:26:55.724Z,13.40
2024-02-19T23:29:22.248Z,13.50
2024-02-19T23:31:48.974Z,13.61
2024-02-19T23:34:15.978Z,13.68
2024-02-19T23:36:42.827Z,13.64
2024-02-19T23:39:09.383Z,13.70
2024-02-19T23:41:36.189Z,13.39
2024-02-19T23:44:02.556Z,13.46
2024-02-19T23:46:29.072Z,13.30
2024-02-19T23:48:55.542Z,13.40
2024-02-19T23:51:22.118Z,13.46
2024-02-19T23:53:48.563Z,13.42
2024-02-19T23:56:15.074Z,13.49
2024-02-19T23:58:41.646Z,13.52
